Airfield :
LOGIN :

Register | Disclaimer

   EN    FR    IT 

 










Legend :    VFR   Marginal VFR   IFR   Intensive IFR   Very Intensive IFR
Visi :
Ceiling :
>= 8 km
>= 3000ft
5 to 8 km
1000 to 3000 ft
1500m to 5 km
500 to 1000 ft
800 to 1500m
200 to 500 ft
< 800m
< 200 ft
Symbols :   Thunderstorms  Fog  Heavy snow  Heavy precipitations  Wind > 20 kt
SIGMETs :     Misc.  Thunderstorms  Icing  Turbulence  Mountain Waves  Volcanic Ashes







- Airport Elevation : 489 ft
- IATA code : GDN


EPGD - Gdansk

CURRENT METAR :
  • 200030Z 12007KT 8000 FEW032 14/14 Q1008

EXPIRED METARs :
  • 200000Z 13005KT 4000 0100W BCFG BR FEW032 13/13 Q1008
  • 192330Z 11005KT 5000 0200W BCFG BR NSC 14/14 Q1008
  • 192300Z 12005KT 5000 0150W BCFG BR NSC 14/14 Q1008
  • 192230Z 11003KT 2000 0200W PRFG BR NSC 14/14 Q1008
  • 192200Z 11006KT 4000 0100W BCFG BR NSC 14/14 Q1008

TAF TAF EPGD
Valid from the 20 at 00:00 until the 21 at 00:00 UTC


192330Z 2000/2024 VRB02KT 0300 FG OVC001
TEMPO 2000/2008 3000 BR BKN005
BECMG 2008/2010 08010KT 9999 SCT040
PROB40
TEMPO 2013/2023 3000 TSRA BKN004 BKN013CB
No reported NOTAMs for that airfield.



MET'MAP, your aeronautical weather chart ! - Copyright ORBIFLY December 2007 - Disclaimer

ORBIFLY MET'MAP TEAM :

Programming & Development : Alexandra Zaïnal
Concept & Development : Baudouin d'Aumeries
Co-Development & Prog : Marc-Olivier Méhu
Technical & hardware support : Manuel Goepfert

Contact : metmap@orbifly.com




SOURCES & CREDITS :

   NOAA